createdAt,value
2018-06-08T00:01:27.269Z,93700.70
2018-06-08T00:03:54.995Z,93699.67
2018-06-08T00:06:22.678Z,93701.03
2018-06-08T00:08:50.406Z,93691.14
2018-06-08T00:11:18.114Z,93686.88
2018-06-08T00:13:45.769Z,93680.52
2018-06-08T00:16:13.487Z,93684.53
2018-06-08T00:18:41.188Z,93675.37
2018-06-08T00:21:09.001Z,93677.29
2018-06-08T00:23:36.679Z,93672.39
2018-06-08T00:26:04.571Z,93678.31
2018-06-08T00:28:32.247Z,93671.28
2018-06-08T00:30:59.939Z,93678.34
2018-06-08T00:33:27.641Z,93673.79
2018-06-08T00:35:55.437Z,93673.06
2018-06-08T00:38:23.101Z,93671.71
2018-06-08T00:40:50.841Z,93667.75
2018-06-08T00:43:18.695Z,93663.36
2018-06-08T00:45:46.383Z,93652.70
2018-06-08T00:48:14.062Z,93658.08
2018-06-08T00:50:41.768Z,93647.51
2018-06-08T00:53:09.451Z,93649.54
2018-06-08T00:55:37.172Z,93637.73
2018-06-08T00:58:04.895Z,93644.05
2018-06-08T01:00:32.639Z,93644.94
2018-06-08T01:03:00.347Z,93640.84
2018-06-08T01:05:28.080Z,93639.06
2018-06-08T01:07:55.758Z,93639.65
2018-06-08T01:10:23.602Z,93636.80
2018-06-08T01:12:51.330Z,93638.06
2018-06-08T01:15:18.998Z,93639.00
2018-06-08T01:17:46.790Z,93642.95
2018-06-08T01:20:14.503Z,93637.33
2018-06-08T01:22:42.249Z,93642.82
2018-06-08T01:25:09.931Z,93642.59
2018-06-08T01:27:37.598Z,93641.12
2018-06-08T01:30:05.294Z,93639.65
2018-06-08T01:32:33.027Z,93635.98
2018-06-08T01:35:01.036Z,93637.73
2018-06-08T01:37:29.014Z,93637.81
2018-06-08T01:39:56.705Z,93638.20
2018-06-08T01:42:24.430Z,93638.03
2018-06-08T01:44:52.218Z,93639.95
2018-06-08T01:47:19.931Z,93638.08
2018-06-08T01:49:47.631Z,93637.41
2018-06-08T01:52:15.375Z,93631.59
2018-06-08T01:54:43.099Z,93635.88
2018-06-08T01:57:10.782Z,93629.70
2018-06-08T01:59:38.582Z,93632.92
2018-06-08T02:02:07.209Z,93633.36
2018-06-08T02:04:35.186Z,93630.41
2018-06-08T02:07:02.861Z,93629.27
2018-06-08T02:09:30.624Z,93629.98
2018-06-08T02:11:58.347Z,93638.19
2018-06-08T02:14:26.984Z,93643.74
2018-06-08T02:16:54.680Z,93655.80
2018-06-08T02:19:22.711Z,93652.48
2018-06-08T02:21:50.486Z,93650.63
2018-06-08T02:24:18.226Z,93653.88
2018-06-08T02:26:45.919Z,93657.22
2018-06-08T02:29:13.595Z,93650.64
2018-06-08T02:31:41.242Z,93651.66
2018-06-08T02:34:08.934Z,93653.43
2018-06-08T02:36:36.669Z,93652.98
2018-06-08T02:39:06.045Z,93658.56
2018-06-08T02:41:33.710Z,93662.37
2018-06-08T02:44:01.412Z,93666.23
2018-06-08T02:46:29.088Z,93663.66
2018-06-08T02:48:56.821Z,93666.30
2018-06-08T02:51:24.476Z,93673.34
2018-06-08T02:53:52.198Z,93676.58
2018-06-08T02:56:20.310Z,93676.64
2018-06-08T02:58:47.955Z,93672.89
2018-06-08T03:01:15.606Z,93675.52
2018-06-08T03:03:43.468Z,93678.31
2018-06-08T03:06:11.203Z,93673.64
2018-06-08T03:08:38.890Z,93679.88
2018-06-08T03:11:06.534Z,93674.69
2018-06-08T03:13:34.247Z,93685.77
2018-06-08T03:16:01.896Z,93680.30
2018-06-08T03:18:29.588Z,93675.59
2018-06-08T03:20:57.330Z,93680.69
2018-06-08T03:23:25.004Z,93677.26
2018-06-08T03:25:52.694Z,93678.12
2018-06-08T03:28:20.379Z,93679.53
2018-06-08T03:30:48.299Z,93684.39
2018-06-08T03:33:15.995Z,93680.30
2018-06-08T03:35:43.710Z,93694.14
2018-06-08T03:38:11.414Z,93686.77
2018-06-08T03:40:39.109Z,93688.34
2018-06-08T03:43:06.789Z,93687.27
2018-06-08T03:45:34.490Z,93683.51
2018-06-08T03:48:02.174Z,93679.25
2018-06-08T03:50:29.868Z,93670.90
2018-06-08T03:52:57.604Z,93675.73
2018-06-08T03:55:25.319Z,93683.63
2018-06-08T03:57:53.046Z,93683.89
2018-06-08T04:00:20.735Z,93680.66
2018-06-08T04:02:48.456Z,93670.98
2018-06-08T04:05:16.154Z,93672.59
2018-06-08T04:07:43.862Z,93668.55
2018-06-08T04:10:11.650Z,93682.62
2018-06-08T04:12:39.383Z,93679.34
2018-06-08T04:15:07.115Z,93685.30
2018-06-08T04:17:34.810Z,93690.93
2018-06-08T04:20:02.527Z,93689.47
2018-06-08T04:22:30.215Z,93687.77
2018-06-08T04:24:57.891Z,93686.39
2018-06-08T04:27:25.566Z,93692.23
2018-06-08T04:29:53.895Z,93686.39
2018-06-08T04:32:21.538Z,93688.70
2018-06-08T04:34:49.236Z,93683.92
2018-06-08T04:37:16.969Z,93680.47
2018-06-08T04:39:44.667Z,93683.14
2018-06-08T04:42:12.495Z,93673.59
2018-06-08T04:44:40.205Z,93669.59
2018-06-08T04:47:07.920Z,93665.55
2018-06-08T04:49:35.593Z,93664.73
2018-06-08T04:52:03.275Z,93666.22
2018-06-08T04:54:30.991Z,93668.25
2018-06-08T04:56:58.684Z,93662.75
2018-06-08T04:59:26.404Z,93665.16
2018-06-08T05:01:54.190Z,93661.11
2018-06-08T05:04:21.881Z,93654.56
2018-06-08T05:06:49.525Z,93655.17
2018-06-08T05:09:17.236Z,93661.08
2018-06-08T05:11:45.080Z,93659.92
2018-06-08T05:14:12.801Z,93661.14
2018-06-08T05:16:40.449Z,93662.08
2018-06-08T05:19:08.122Z,93664.53
2018-06-08T05:21:35.806Z,93668.89
2018-06-08T05:24:03.479Z,93671.78
2018-06-08T05:26:31.162Z,93675.54
2018-06-08T05:28:58.902Z,93685.77
2018-06-08T05:31:26.627Z,93688.91
2018-06-08T05:33:54.342Z,93691.22
2018-06-08T05:36:21.998Z,93685.43
2018-06-08T05:38:49.746Z,93682.62
2018-06-08T05:41:17.430Z,93686.20
2018-06-08T05:43:45.118Z,93689.44
2018-06-08T05:46:12.815Z,93700.23
2018-06-08T05:48:40.483Z,93705.72
2018-06-08T05:51:08.184Z,93705.00
2018-06-08T05:53:35.972Z,93712.83
2018-06-08T05:56:03.578Z,93718.05
2018-06-08T05:58:31.298Z,93722.03
2018-06-08T06:00:58.988Z,93723.64
2018-06-08T06:03:26.716Z,93721.92
2018-06-08T06:05:54.416Z,93720.16
2018-06-08T06:08:22.099Z,93723.19
2018-06-08T06:10:49.740Z,93717.63
2018-06-08T06:13:17.503Z,93718.75
2018-06-08T06:15:45.178Z,93723.31
2018-06-08T06:18:13.603Z,93720.73
2018-06-08T06:20:41.383Z,93719.45
2018-06-08T06:23:09.111Z,93716.81
2018-06-08T06:25:36.812Z,93719.48
2018-06-08T06:28:04.570Z,93708.27
2018-06-08T06:30:32.291Z,93704.30
2018-06-08T06:32:59.983Z,93707.23
2018-06-08T06:35:27.704Z,93701.36
2018-06-08T06:37:55.410Z,93706.17
2018-06-08T06:40:23.094Z,93694.66
2018-06-08T06:42:50.787Z,93688.45
2018-06-08T06:45:18.462Z,93694.73
2018-06-08T06:47:46.138Z,93693.22
2018-06-08T06:50:13.860Z,93694.73
2018-06-08T06:52:41.522Z,93687.38
2018-06-08T06:55:09.247Z,93686.84
2018-06-08T06:57:36.951Z,93688.52
2018-06-08T07:00:04.710Z,93678.72
2018-06-08T07:02:32.534Z,93675.71
2018-06-08T07:05:00.252Z,93675.01
2018-06-08T07:07:27.906Z,93675.41
2018-06-08T07:09:55.527Z,93660.91
2018-06-08T07:12:23.226Z,93653.90
2018-06-08T07:14:50.930Z,93646.14
2018-06-08T07:17:18.686Z,93643.83
2018-06-08T07:19:46.377Z,93646.61
2018-06-08T07:22:14.107Z,93642.64
2018-06-08T07:24:41.823Z,93634.14
2018-06-08T07:27:09.486Z,93625.92
2018-06-08T07:29:37.187Z,93625.39
2018-06-08T07:32:04.922Z,93630.67
2018-06-08T07:34:32.599Z,93622.55
2018-06-08T07:37:00.304Z,93622.27
2018-06-08T07:39:27.969Z,93626.21
2018-06-08T07:41:55.677Z,93634.21
2018-06-08T07:44:23.401Z,93630.08
2018-06-08T07:46:51.212Z,93634.07
2018-06-08T07:49:18.864Z,93634.95
2018-06-08T07:51:46.572Z,93629.83
2018-06-08T07:54:14.278Z,93627.34
2018-06-08T07:56:41.971Z,93620.19
2018-06-08T07:59:09.655Z,93621.89
2018-06-08T08:01:37.335Z,93626.21
2018-06-08T08:04:04.996Z,93625.11
2018-06-08T08:06:32.711Z,93625.33
2018-06-08T08:09:00.399Z,93624.86
2018-06-08T08:11:28.210Z,93624.90
2018-06-08T08:13:55.924Z,93624.25
2018-06-08T08:16:23.585Z,93625.39
2018-06-08T08:18:51.223Z,93624.72
2018-06-08T08:21:18.900Z,93622.63
2018-06-08T08:23:47.342Z,93624.05
2018-06-08T08:26:15.035Z,93625.08
2018-06-08T08:28:42.671Z,93626.52
2018-06-08T08:31:10.379Z,93624.38
2018-06-08T08:33:38.052Z,93626.86
2018-06-08T08:36:05.726Z,93617.38
2018-06-08T08:38:33.396Z,93619.90
2018-06-08T08:41:01.102Z,93627.28
2018-06-08T08:43:28.751Z,93623.15
2018-06-08T08:45:56.503Z,93631.95
2018-06-08T08:48:24.177Z,93628.73
2018-06-08T08:50:51.870Z,93618.20
2018-06-08T08:53:19.552Z,93624.41
2018-06-08T08:55:47.175Z,93623.52
2018-06-08T08:58:14.830Z,93628.81
2018-06-08T09:00:42.458Z,93633.06
2018-06-08T09:03:10.134Z,93625.08
2018-06-08T09:05:37.835Z,93621.13
2018-06-08T09:08:05.522Z,93624.22
2018-06-08T09:10:33.220Z,93629.72
2018-06-08T09:13:01.207Z,93619.66
2018-06-08T09:15:28.876Z,93621.47
2018-06-08T09:17:56.536Z,93619.07
2018-06-08T09:20:24.218Z,93613.66
2018-06-08T09:22:51.931Z,93616.91
2018-06-08T09:25:19.607Z,93618.79
2018-06-08T09:27:47.279Z,93615.66
2018-06-08T09:30:14.894Z,93621.98
2018-06-08T09:32:42.529Z,93614.91
2018-06-08T09:35:10.203Z,93610.95
2018-06-08T09:37:37.867Z,93613.03
2018-06-08T09:40:05.599Z,93610.62
2018-06-08T09:42:33.291Z,93610.62
2018-06-08T09:45:00.977Z,93608.75
2018-06-08T09:47:28.628Z,93602.55
2018-06-08T09:49:56.307Z,93613.84
2018-06-08T09:52:23.998Z,93612.84
2018-06-08T09:54:51.733Z,93613.31
2018-06-08T09:57:19.390Z,93603.67
2018-06-08T09:59:47.052Z,93594.48
2018-06-08T10:02:14.717Z,93601.98
2018-06-08T10:04:42.402Z,93598.53
2018-06-08T10:07:10.120Z,93596.50
2018-06-08T10:09:37.782Z,93599.82
2018-06-08T10:12:05.467Z,93599.23
2018-06-08T10:14:33.123Z,93588.71
2018-06-08T10:17:00.792Z,93595.52
2018-06-08T10:19:28.447Z,93586.48
2018-06-08T10:21:56.099Z,93582.13
2018-06-08T10:24:23.790Z,93583.28
2018-06-08T10:26:51.426Z,93585.56
2018-06-08T10:29:19.095Z,93577.41
2018-06-08T10:31:46.769Z,93574.53
2018-06-08T10:34:14.567Z,93571.74
2018-06-08T10:36:42.241Z,93572.12
2018-06-08T10:39:09.943Z,93570.52
2018-06-08T10:41:37.663Z,93566.97
2018-06-08T10:44:05.370Z,93563.61
2018-06-08T10:46:33.133Z,93564.05
2018-06-08T10:49:00.796Z,93559.53
2018-06-08T10:51:28.482Z,93563.36
2018-06-08T10:53:56.200Z,93560.02
2018-06-08T10:56:23.838Z,93557.43
2018-06-08T10:58:51.516Z,93558.36
2018-06-08T11:01:19.164Z,93560.02
2018-06-08T11:03:46.860Z,93557.07
2018-06-08T11:06:14.532Z,93546.46
2018-06-08T11:08:42.229Z,93551.42
2018-06-08T11:11:09.864Z,93540.75
2018-06-08T11:13:37.534Z,93539.44
2018-06-08T11:16:05.183Z,93541.95
2018-06-08T11:18:32.851Z,93545.59
2018-06-08T11:21:00.486Z,93536.74
2018-06-08T11:23:28.196Z,93529.39
2018-06-08T11:25:55.811Z,93534.51
2018-06-08T11:28:23.506Z,93535.74
2018-06-08T11:30:51.196Z,93529.37
2018-06-08T11:33:18.895Z,93539.68
2018-06-08T11:35:46.604Z,93524.16
2018-06-08T11:38:14.287Z,93519.78
2018-06-08T11:40:41.978Z,93523.98
2018-06-08T11:43:09.652Z,93518.74
2018-06-08T11:45:37.298Z,93519.78
2018-06-08T11:48:04.993Z,93508.60
2018-06-08T11:50:32.638Z,93511.35
2018-06-08T11:53:00.420Z,93496.62
2018-06-08T11:55:27.967Z,93501.69
2018-06-08T11:57:55.653Z,93514.08
2018-06-08T12:00:23.326Z,93505.28
2018-06-08T12:02:50.998Z,93505.17
2018-06-08T12:05:18.628Z,93505.47
2018-06-08T12:07:46.287Z,93496.42
2018-06-08T12:10:14.000Z,93486.86
2018-06-08T12:12:41.657Z,93484.25
2018-06-08T12:15:09.351Z,93492.01
2018-06-08T12:17:37.032Z,93498.86
2018-06-08T12:20:04.771Z,93484.80
2018-06-08T12:22:32.508Z,93487.13
2018-06-08T12:25:00.205Z,93477.32
2018-06-08T12:27:27.895Z,93480.64
2018-06-08T12:29:55.638Z,93467.84
2018-06-08T12:32:23.288Z,93471.13
2018-06-08T12:34:51.023Z,93476.09
2018-06-08T12:37:18.704Z,93476.77
2018-06-08T12:39:46.404Z,93479.42
2018-06-08T12:42:14.484Z,93479.11
2018-06-08T12:44:42.165Z,93485.63
2018-06-08T12:47:09.840Z,93479.84
2018-06-08T12:49:37.559Z,93483.08
2018-06-08T12:52:05.258Z,93487.66
2018-06-08T12:54:32.950Z,93481.27
2018-06-08T12:57:00.660Z,93482.13
2018-06-08T12:59:28.376Z,93476.20
2018-06-08T13:01:56.137Z,93473.34
2018-06-08T13:04:23.844Z,93466.17
2018-06-08T13:06:51.506Z,93469.37
2018-06-08T13:09:19.258Z,93473.33
2018-06-08T13:11:46.975Z,93467.52
2018-06-08T13:14:14.711Z,93467.96
2018-06-08T13:16:42.446Z,93461.84
2018-06-08T13:19:10.195Z,93455.80
2018-06-08T13:21:37.901Z,93454.73
2018-06-08T13:24:05.641Z,93452.91
2018-06-08T13:26:33.367Z,93446.86
2018-06-08T13:29:01.097Z,93441.66
2018-06-08T13:31:28.779Z,93439.34
2018-06-08T13:33:56.554Z,93440.66
2018-06-08T13:36:24.258Z,93435.65
2018-06-08T13:38:51.966Z,93429.53
2018-06-08T13:41:19.680Z,93433.30
2018-06-08T13:43:47.405Z,93435.27
2018-06-08T13:46:20.687Z,93425.91
2018-06-08T13:48:48.461Z,93427.77
2018-06-08T13:51:16.198Z,93423.50
2018-06-08T13:53:43.920Z,93418.16
2018-06-08T13:56:11.637Z,93419.89
2018-06-08T13:58:39.361Z,93410.01
2018-06-08T14:01:07.072Z,93403.69
2018-06-08T14:03:34.773Z,93393.70
2018-06-08T14:06:02.531Z,93389.27
2018-06-08T14:08:30.265Z,93392.44
2018-06-08T14:10:58.163Z,93401.52
2018-06-08T14:13:25.880Z,93391.16
2018-06-08T14:15:53.576Z,93391.07
2018-06-08T14:18:21.344Z,93399.03
2018-06-08T14:20:51.755Z,93388.88
2018-06-08T14:23:19.494Z,93380.22
2018-06-08T14:25:47.215Z,93388.09
2018-06-08T14:28:14.966Z,93379.82
2018-06-08T14:30:42.638Z,93372.77
2018-06-08T14:33:10.358Z,93370.32
2018-06-08T14:35:38.073Z,93369.09
2018-06-08T14:38:05.793Z,93361.39
2018-06-08T14:40:33.541Z,93365.17
2018-06-08T14:43:01.243Z,93363.09
2018-06-08T14:45:29.028Z,93364.64
2018-06-08T14:47:56.683Z,93361.61
2018-06-08T14:50:24.439Z,93372.77
2018-06-08T14:52:52.101Z,93375.73
2018-06-08T14:55:19.814Z,93374.48
2018-06-08T14:57:48.090Z,93377.98
2018-06-08T15:00:15.814Z,93382.82
2018-06-08T15:02:43.502Z,93372.16
2018-06-08T15:05:11.182Z,93378.78
2018-06-08T15:07:38.922Z,93379.44
2018-06-08T15:10:06.602Z,93371.95
2018-06-08T15:12:34.304Z,93379.50
2018-06-08T15:15:02.002Z,93372.72
2018-06-08T15:17:29.733Z,93368.80
2018-06-08T15:19:57.431Z,93378.67
2018-06-08T15:22:25.154Z,93369.80
2018-06-08T15:24:52.877Z,93372.48
2018-06-08T15:27:20.591Z,93362.00
2018-06-08T15:29:48.287Z,93364.69
2018-06-08T15:32:16.089Z,93352.01
2018-06-08T15:34:43.780Z,93347.95
2018-06-08T15:37:11.514Z,93349.75
2018-06-08T15:39:39.313Z,93357.38
2018-06-08T15:42:07.018Z,93355.15
2018-06-08T15:44:35.093Z,93356.89
2018-06-08T15:47:02.842Z,93353.39
2018-06-08T15:49:30.653Z,93357.11
2018-06-08T15:51:58.366Z,93362.47
2018-06-08T15:54:26.152Z,93352.83
2018-06-08T15:56:53.858Z,93348.66
2018-06-08T15:59:21.576Z,93351.48
2018-06-08T16:01:49.283Z,93352.05
2018-06-08T16:04:17.030Z,93354.17
2018-06-08T16:06:44.714Z,93366.98
2018-06-08T16:09:12.411Z,93364.83
2018-06-08T16:11:40.229Z,93385.61
2018-06-08T16:14:07.936Z,93384.03
2018-06-08T16:16:35.699Z,93383.23
2018-06-08T16:19:03.470Z,93387.75
2018-06-08T16:21:31.201Z,93383.61
2018-06-08T16:23:58.894Z,93387.63
2018-06-08T16:26:26.643Z,93384.91
2018-06-08T16:28:54.372Z,93390.73
2018-06-08T16:31:22.094Z,93396.61
2018-06-08T16:33:49.841Z,93389.58
2018-06-08T16:36:17.585Z,93386.15
2018-06-08T16:38:45.404Z,93377.55
2018-06-08T16:41:13.129Z,93383.16
2018-06-08T16:43:40.846Z,93387.59
2018-06-08T16:46:08.588Z,93413.34
2018-06-08T16:48:36.353Z,93425.05
2018-06-08T16:51:04.140Z,93425.19
2018-06-08T16:53:31.846Z,93432.73
2018-06-08T16:55:59.540Z,93428.02
2018-06-08T16:58:27.271Z,93428.81
2018-06-08T17:00:55.071Z,93424.88
2018-06-08T17:03:22.790Z,93420.02
2018-06-08T17:05:50.494Z,93419.84
2018-06-08T17:08:18.214Z,93410.69
2018-06-08T17:10:45.898Z,93401.19
2018-06-08T17:13:13.605Z,93386.56
2018-06-08T17:15:41.363Z,93388.94
2018-06-08T17:18:09.235Z,93404.44
2018-06-08T17:20:37.058Z,93415.05
2018-06-08T17:23:04.829Z,93424.45
2018-06-08T17:25:32.578Z,93422.89
2018-06-08T17:28:00.549Z,93415.63
2018-06-08T17:30:28.306Z,93423.42
2018-06-08T17:32:56.013Z,93426.05
2018-06-08T17:35:23.712Z,93433.36
2018-06-08T17:37:51.418Z,93442.98
2018-06-08T17:40:19.134Z,93444.59
2018-06-08T17:42:46.850Z,93455.79
2018-06-08T17:45:14.559Z,93459.64
2018-06-08T17:47:42.247Z,93479.11
2018-06-08T17:50:10.003Z,93476.02
2018-06-08T17:52:37.711Z,93486.12
2018-06-08T17:55:05.438Z,93486.88
2018-06-08T17:57:33.243Z,93488.23
2018-06-08T18:00:00.992Z,93489.81
2018-06-08T18:02:28.686Z,93489.84
2018-06-08T18:04:56.400Z,93497.31
2018-06-08T18:07:24.094Z,93497.56
2018-06-08T18:09:51.801Z,93505.32
2018-06-08T18:12:19.523Z,93515.45
2018-06-08T18:14:47.398Z,93521.31
2018-06-08T18:17:15.101Z,93525.03
2018-06-08T18:19:42.804Z,93536.76
2018-06-08T18:22:10.633Z,93542.07
2018-06-08T18:24:38.254Z,93537.20
2018-06-08T18:27:05.977Z,93533.95
2018-06-08T18:29:33.697Z,93533.83
2018-06-08T18:32:01.443Z,93529.83
2018-06-08T18:34:29.170Z,93524.20
2018-06-08T18:36:56.919Z,93522.84
2018-06-08T18:39:24.602Z,93514.46
2018-06-08T18:41:52.331Z,93517.27
2018-06-08T18:44:20.036Z,93505.20
2018-06-08T18:46:47.848Z,93515.63
2018-06-08T18:49:15.595Z,93519.20
2018-06-08T18:51:43.323Z,93517.51
2018-06-08T18:54:11.105Z,93524.21
2018-06-08T18:56:38.863Z,93504.99
2018-06-08T18:59:06.632Z,93520.59
2018-06-08T19:01:34.417Z,93527.39
2018-06-08T19:04:02.120Z,93539.73
2018-06-08T19:06:29.808Z,93539.15
2018-06-08T19:08:57.535Z,93531.98
2018-06-08T19:11:25.264Z,93534.45
2018-06-08T19:13:53.963Z,93544.97
2018-06-08T19:16:21.702Z,93554.97
2018-06-08T19:18:49.396Z,93581.59
2018-06-08T19:21:17.111Z,93607.56
2018-06-08T19:23:44.811Z,93616.32
2018-06-08T19:26:12.582Z,93624.22
2018-06-08T19:28:40.343Z,93626.94
2018-06-08T19:31:08.100Z,93655.64
2018-06-08T19:33:35.866Z,93692.89
2018-06-08T19:36:03.597Z,93672.45
2018-06-08T19:38:31.323Z,93638.03
2018-06-08T19:40:59.106Z,93608.77
2018-06-08T19:43:26.862Z,93590.79
2018-06-08T19:45:54.594Z,93590.59
2018-06-08T19:48:22.342Z,93598.08
2018-06-08T19:50:50.124Z,93588.05
2018-06-08T19:53:17.874Z,93576.11
2018-06-08T19:55:45.623Z,93585.70
2018-06-08T19:58:13.332Z,93583.05
2018-06-08T20:00:41.059Z,93585.94
2018-06-08T20:03:08.804Z,93571.56
2018-06-08T20:05:36.514Z,93550.58
2018-06-08T20:08:04.212Z,93546.31
2018-06-08T20:10:32.020Z,93539.88
2018-06-08T20:12:59.944Z,93552.92
2018-06-08T20:15:27.644Z,93564.28
2018-06-08T20:17:55.421Z,93552.87
2018-06-08T20:20:23.163Z,93542.77
2018-06-08T20:22:50.886Z,93541.89
2018-06-08T20:25:18.617Z,93544.70
2018-06-08T20:27:46.466Z,93533.22
2018-06-08T20:30:14.172Z,93532.60
2018-06-08T20:32:41.936Z,93529.37
2018-06-08T20:35:09.655Z,93528.55
2018-06-08T20:37:37.463Z,93525.19
2018-06-08T20:40:05.557Z,93523.69
2018-06-08T20:42:33.340Z,93512.66
2018-06-08T20:45:01.090Z,93519.58
2018-06-08T20:47:28.900Z,93518.91
2018-06-08T20:49:56.674Z,93514.52
2018-06-08T20:52:24.385Z,93519.73
2018-06-08T20:54:52.185Z,93517.31
2018-06-08T20:57:23.907Z,93514.35
2018-06-08T20:59:51.665Z,93518.53
2018-06-08T21:02:19.801Z,93508.22
2018-06-08T21:04:47.444Z,93505.28
2018-06-08T21:07:15.217Z,93507.44
2018-06-08T21:09:43.059Z,93500.53
2018-06-08T21:12:10.899Z,93510.09
2018-06-08T21:14:38.656Z,93514.35
2018-06-08T21:17:06.466Z,93527.02
2018-06-08T21:19:34.176Z,93540.36
2018-06-08T21:22:01.919Z,93531.20
2018-06-08T21:24:29.924Z,93526.64
2018-06-08T21:26:57.770Z,93528.91
2018-06-08T21:29:25.561Z,93540.47
2018-06-08T21:31:53.425Z,93541.02
2018-06-08T21:34:21.166Z,93543.13
2018-06-08T21:36:48.936Z,93546.81
2018-06-08T21:39:16.660Z,93547.47
2018-06-08T21:41:44.411Z,93553.59
2018-06-08T21:44:12.167Z,93548.09
2018-06-08T21:46:40.006Z,93553.98
2018-06-08T21:49:07.723Z,93547.63
2018-06-08T21:51:35.529Z,93546.02
2018-06-08T21:54:03.272Z,93550.86
2018-06-08T21:56:31.002Z,93554.09
2018-06-08T21:58:58.800Z,93551.70
2018-06-08T22:01:26.556Z,93546.00
2018-06-08T22:03:54.373Z,93540.63
2018-06-08T22:06:22.151Z,93547.59
2018-06-08T22:08:49.885Z,93544.83
2018-06-08T22:11:17.701Z,93552.17
2018-06-08T22:13:45.463Z,93547.31
2018-06-08T22:16:13.206Z,93534.34
2018-06-08T22:18:40.947Z,93536.71
2018-06-08T22:21:08.661Z,93534.43
2018-06-08T22:23:36.417Z,93539.81
2018-06-08T22:26:04.147Z,93543.42
2018-06-08T22:28:31.881Z,93535.95
2018-06-08T22:30:59.652Z,93539.02
2018-06-08T22:33:27.459Z,93547.70
2018-06-08T22:35:55.239Z,93547.64
2018-06-08T22:38:22.947Z,93548.02
2018-06-08T22:40:50.701Z,93549.05
2018-06-08T22:43:18.529Z,93546.40
2018-06-08T22:45:46.303Z,93555.50
2018-06-08T22:48:14.045Z,93548.09
2018-06-08T22:50:41.803Z,93550.89
2018-06-08T22:53:09.577Z,93545.44
2018-06-08T22:55:37.325Z,93548.28
2018-06-08T22:58:05.072Z,93547.64
2018-06-08T23:00:32.805Z,93548.38
2018-06-08T23:03:00.588Z,93546.81
2018-06-08T23:05:28.367Z,93550.81
2018-06-08T23:07:56.153Z,93548.28
2018-06-08T23:10:23.904Z,93545.05
2018-06-08T23:12:51.667Z,93552.66
2018-06-08T23:15:19.439Z,93552.17
2018-06-08T23:17:47.258Z,93540.25
2018-06-08T23:20:14.991Z,93546.65
2018-06-08T23:22:42.734Z,93542.59
2018-06-08T23:25:10.467Z,93538.98
2018-06-08T23:27:38.201Z,93529.63
2018-06-08T23:30:05.946Z,93544.75
2018-06-08T23:32:33.767Z,93552.32
2018-06-08T23:35:01.530Z,93567.27
2018-06-08T23:37:29.215Z,93570.29
2018-06-08T23:39:56.891Z,93576.74
2018-06-08T23:42:24.613Z,93579.48
2018-06-08T23:44:52.286Z,93556.16
2018-06-08T23:47:20.041Z,93538.28
2018-06-08T23:49:47.713Z,93541.61
2018-06-08T23:52:15.369Z,93557.20
2018-06-08T23:54:43.160Z,93556.07
2018-06-08T23:57:10.897Z,93547.45
2018-06-08T23:59:38.598Z,93540.25
